Time;durP1;ratioP1;P1;durP2;ratioP2;P2;SDS_P1;SDS_P2;PMS_P1;PMS_P2;Temp;Humidity;BMP_temperature;BMP_pressure;BME280_temperature;BME280_humidity;BME280_pressure;Samples;Min_cycle;Max_cycle;Signal;HPM_P1;HPM_P2
2021/11/24 09:55:09;;;;;;;0.00;0.00;;;;;;;-145.06;100.00;63404.56;10279279;28;20435;-67
2021/11/24 10:00:11;;;;;;;0.00;0.00;;;;;;;-145.06;100.00;63404.56;10227890;28;20039;-68
2021/11/24 10:05:12;;;;;;;0.10;0.10;;;;;;;-145.06;100.00;63404.56;10300448;23;20080;-68
2021/11/24 10:10:12;;;;;;;0.05;0.05;;;;;;;-145.06;100.00;63404.56;10290334;28;20046;-66
2021/11/24 10:15:34;;;;;;;0.00;0.00;;;;;;;-145.06;100.00;63404.56;10302277;28;20022;-69
2021/11/24 10:20:47;;;;;;;0.00;0.00;;;;;;;-145.06;100.00;63404.56;10273688;28;20085;-69
2021/11/24 10:25:48;;;;;;;0.08;0.08;;;;;;;-145.06;100.00;63404.56;10286271;28;20101;-69
2021/11/24 10:30:48;;;;;;;0.00;0.00;;;;;;;-145.06;100.00;63404.56;10286401;28;20463;-68
2021/11/24 10:36:12;;;;;;;0.00;0.00;;;;;;;-145.06;100.00;63404.56;10261670;28;20024;-66
2021/11/24 10:41:25;;;;;;;0.10;0.10;;;;;;;-145.06;100.00;63404.56;10271223;28;20483;-69
2021/11/24 10:46:26;;;;;;;0.10;0.10;;;;;;;-145.06;100.00;63404.56;10286432;28;20054;-69
2021/11/24 10:51:39;;;;;;;0.00;0.00;;;;;;;-145.06;100.00;63404.56;10270818;28;20473;-66
2021/11/24 10:57:04;;;;;;;0.10;0.10;;;;;;;-145.06;100.00;63404.56;10285140;28;20552;-68
2021/11/24 11:02:14;;;;;;;;;;;;;;;-145.06;100.00;63404.56;10270436;28;20023;-68
2021/11/24 11:07:14;;;;;;;0.00;0.00;;;;;;;-145.06;100.00;63404.56;10286604;28;19961;-68
2021/11/24 11:12:15;;;;;;;0.10;0.10;;;;;;;-145.06;100.00;63404.56;10280071;28;20086;-68
2021/11/24 11:17:17;;;;;;;0.08;0.08;;;;;;;-145.06;100.00;63404.56;10283686;28;20289;-68
2021/11/24 11:22:21;;;;;;;0.00;0.00;;;;;;;-145.06;100.00;63404.56;10266701;28;20035;-68
2021/11/24 11:27:23;;;;;;;0.00;0.00;;;;;;;-145.06;100.00;63404.56;10277085;28;20033;-68
2021/11/24 11:32:23;;;;;;;0.00;0.00;;;;;;;-145.06;100.00;63404.56;10287430;28;20442;-68
2021/11/24 11:37:24;;;;;;;0.00;0.00;;;;;;;-145.06;100.00;63404.56;10286008;28;20057;-68
2021/11/24 11:42:24;;;;;;;0.05;0.05;;;;;;;-145.06;100.00;63404.56;10274140;28;20039;-68
2021/11/24 11:47:42;;;;;;;0.00;0.00;;;;;;;-145.06;100.00;63404.56;10286270;28;20502;-68
2021/11/24 11:53:12;;;;;;;0.00;0.00;;;;;;;-145.06;100.00;63404.56;10273740;28;20057;-68
2021/11/24 11:58:28;;;;;;;0.10;0.10;;;;;;;-145.06;100.00;63404.56;10286571;28;20030;-68
2021/11/24 12:03:56;;;;;;;0.00;0.00;;;;;;;-145.06;100.00;63404.56;10273355;28;20049;-68
2021/11/24 12:09:11;;;;;;;0.00;0.00;;;;;;;-145.06;100.00;63404.56;10286519;28;20561;-68
2021/11/24 12:14:49;;;;;;;0.00;0.00;;;;;;;-145.06;100.00;63404.56;10278229;28;20038;-67
2021/11/24 12:19:49;;;;;;;0.00;0.00;;;;;;;-145.06;100.00;63404.56;10280791;28;20041;-68
2021/11/24 12:24:49;;;;;;;0.00;0.00;;;;;;;-145.06;100.00;63404.56;10268176;28;20774;-68
2021/11/24 12:29:50;;;;;;;0.00;0.00;;;;;;;-145.06;100.00;63404.56;10243641;28;20301;-68
2021/11/24 12:34:52;;;;;;;0.00;0.00;;;;;;;-145.06;100.00;63404.56;10279594;28;20019;-68
2021/11/24 12:39:52;;;;;;;0.05;0.05;;;;;;;-145.06;100.00;63404.56;10260093;28;20137;-67
2021/11/24 12:44:54;;;;;;;0.00;0.00;;;;;;;-145.06;100.00;63404.56;10263191;28;20030;-68
2021/11/24 12:50:07;;;;;;;0.00;0.00;;;;;;;-145.06;100.00;63404.56;10278336;28;20023;-68
2021/11/24 12:55:08;;;;;;;0.00;0.00;;;;;;;-145.06;100.00;63404.56;10275146;28;20039;-68
2021/11/24 13:00:30;;;;;;;0.00;0.00;;;;;;;-145.06;100.00;63404.56;10285624;28;20035;-67
2021/11/24 13:05:30;;;;;;;0.00;0.00;;;;;;;-145.06;100.00;63404.56;10272192;28;20544;-68
2021/11/24 13:10:31;;;;;;;0.00;0.00;;;;;;;-145.06;100.00;63404.56;10281245;28;20087;-67
2021/11/24 13:15:31;;;;;;;0.00;0.00;;;;;;;-145.06;100.00;63404.56;10288684;28;20030;-68
2021/11/24 13:20:32;;;;;;;0.00;0.00;;;;;;;-145.06;100.00;63404.56;10275631;28;20402;-68
2021/11/24 13:25:36;;;;;;;0.00;0.00;;;;;;;-145.06;100.00;63404.56;10282505;28;20382;-68
2021/11/24 13:30:39;;;;;;;0.00;0.00;;;;;;;-145.06;100.00;63404.56;10278220;28;20493;-68
2021/11/24 13:35:46;;;;;;;0.05;0.05;;;;;;;-145.06;100.00;63404.56;10260594;28;20031;-68
2021/11/24 13:40:50;;;;;;;0.00;0.00;;;;;;;-145.06;100.00;63404.56;10277865;28;20039;-67
2021/11/24 13:45:50;;;;;;;0.10;0.10;;;;;;;-145.06;100.00;63404.56;10285209;28;20351;-67
2021/11/24 13:51:00;;;;;;;0.00;0.00;;;;;;;-145.06;100.00;63404.56;10254115;28;20023;-68
2021/11/24 13:56:22;;;;;;;0.00;0.00;;;;;;;-145.06;100.00;63404.56;10257232;28;20019;-68
2021/11/24 14:01:26;;;;;;;0.00;0.00;;;;;;;-145.06;100.00;63404.56;10261650;28;20027;-68
2021/11/24 14:06:48;;;;;;;0.00;0.00;;;;;;;-145.06;100.00;63404.56;10257107;28;20023;-68
2021/11/24 14:11:58;;;;;;;0.05;0.05;;;;;;;-145.06;100.00;63404.56;10257599;28;20083;-67
2021/11/24 14:17:01;;;;;;;0.10;0.10;;;;;;;-145.06;100.00;63404.56;10257372;28;20042;-68
2021/11/24 14:22:04;;;;;;;0.00;0.00;;;;;;;-145.06;100.00;63404.56;10253604;28;20031;-68
2021/11/24 14:27:05;;;;;;;0.03;0.03;;;;;;;-145.06;100.00;63404.56;10261746;28;20074;-67
2021/11/24 14:32:06;;;;;;;0.00;0.00;;;;;;;-145.06;100.00;63404.56;10260919;28;20495;-68
2021/11/24 14:37:06;;;;;;;0.00;0.00;;;;;;;-145.06;100.00;63404.56;10252705;28;20102;-68
2021/11/24 14:42:07;;;;;;;0.00;0.00;;;;;;;-145.06;100.00;63404.56;10253174;28;20057;-67
2021/11/24 14:47:07;;;;;;;0.00;0.00;;;;;;;-145.06;100.00;63404.56;10253216;28;20030;-68
2021/11/24 14:52:07;;;;;;;0.00;0.00;;;;;;;-145.06;100.00;63404.56;10252930;28;20347;-67
2021/11/24 14:57:08;;;;;;;0.00;0.00;;;;;;;-145.06;100.00;63404.56;10263564;28;20641;-68
2021/11/24 15:02:08;;;;;;;0.10;0.10;;;;;;;-145.06;100.00;63404.56;10259498;28;20027;-68
2021/11/24 15:07:10;;;;;;;0.00;0.00;;;;;;;-145.06;100.00;63404.56;10257351;28;20023;-68
2021/11/24 15:12:11;;;;;;;0.00;0.00;;;;;;;-145.06;100.00;63404.56;10257548;28;20081;-67
2021/11/24 15:17:11;;;;;;;0.00;0.00;;;;;;;-145.06;100.00;63404.56;10251189;28;20067;-69
2021/11/24 15:22:16;;;;;;;0.00;0.00;;;;;;;-145.06;100.00;63404.56;10249260;28;20030;-68
2021/11/24 15:27:16;;;;;;;0.00;0.00;;;;;;;-145.06;100.00;63404.56;10260368;28;20035;-67
2021/11/24 15:32:16;;;;;;;0.00;0.00;;;;;;;-145.06;100.00;63404.56;10248753;28;20027;-68
2021/11/24 15:37:17;;;;;;;0.00;0.00;;;;;;;-145.06;100.00;63404.56;10253218;28;20085;-67
2021/11/24 15:42:17;;;;;;;0.00;0.00;;;;;;;-145.06;100.00;63404.56;10255856;28;20024;-67
2021/11/24 15:47:23;;;;;;;0.00;0.00;;;;;;;-145.06;100.00;63404.56;10254905;28;20026;-67
2021/11/24 15:52:24;;;;;;;0.00;0.00;;;;;;;-145.06;100.00;63404.56;10255629;28;20023;-68
2021/11/24 15:57:24;;;;;;;0.10;0.10;;;;;;;-145.06;100.00;63404.56;10256605;28;20458;-68
2021/11/24 16:02:25;;;;;;;0.00;0.00;;;;;;;-145.06;100.00;63404.56;10255766;28;20031;-68
2021/11/24 16:07:25;;;;;;;0.00;0.00;;;;;;;-145.06;100.00;63404.56;10248158;28;20029;-68
2021/11/24 16:12:27;;;;;;;0.00;0.00;;;;;;;-145.06;100.00;63404.56;10259698;28;20054;-68
2021/11/24 16:17:27;;;;;;;0.00;0.00;;;;;;;-145.06;100.00;63404.56;10252243;28;20501;-68
2021/11/24 16:22:28;;;;;;;0.00;0.00;;;;;;;-145.06;100.00;63404.56;10260783;28;20729;-68
2021/11/24 16:27:29;;;;;;;0.10;0.10;;;;;;;-145.06;100.00;63404.56;10253269;28;20094;-68
2021/11/24 16:32:29;;;;;;;0.00;0.00;;;;;;;-145.06;100.00;63404.56;10258705;28;20082;-70
2021/11/24 16:37:30;;;;;;;0.00;0.00;;;;;;;-145.06;100.00;63404.56;10250726;28;20027;-69
2021/11/24 16:42:30;;;;;;;0.00;0.00;;;;;;;-145.06;100.00;63404.56;10251284;28;20031;-68
2021/11/24 16:47:31;;;;;;;0.00;0.00;;;;;;;-145.06;100.00;63404.56;10235603;28;20077;-69
2021/11/24 16:52:31;;;;;;;0.00;0.00;;;;;;;-145.06;100.00;63404.56;10253871;28;20028;-68
2021/11/24 16:57:33;;;;;;;0.00;0.00;;;;;;;-145.06;100.00;63404.56;10258040;28;20039;-71
2021/11/24 17:02:33;;;;;;;0.00;0.00;;;;;;;-145.06;100.00;63404.56;10251144;28;20046;-68
2021/11/24 17:07:35;;;;;;;0.00;0.00;;;;;;;-145.06;100.00;63404.56;10267333;28;20025;-68
2021/11/24 17:12:35;;;;;;;0.00;0.00;;;;;;;-145.06;100.00;63404.56;10229226;23;20050;-71
2021/11/24 17:17:36;;;;;;;0.00;0.00;;;;;;;-145.06;100.00;63404.56;10177041;29;20026;-71
2021/11/24 17:22:36;;;;;;;0.00;0.00;;;;;;;-145.06;100.00;63404.56;10188714;29;20024;-71
2021/11/24 17:27:36;;;;;;;0.00;0.00;;;;;;;-145.06;100.00;63404.56;10202602;29;20027;-71
2021/11/24 17:32:37;;;;;;;0.00;0.00;;;;;;;-145.06;100.00;63404.56;10203709;29;20057;-71
2021/11/24 17:37:37;;;;;;;0.00;0.00;;;;;;;-145.06;100.00;63404.56;10210707;29;20024;-71
2021/11/24 17:42:38;;;;;;;0.00;0.00;;;;;;;-145.06;100.00;63404.56;10227938;29;20490;-71
2021/11/24 17:47:39;;;;;;;0.00;0.00;;;;;;;-145.06;100.00;63404.56;10231674;29;20342;-71
2021/11/24 17:52:41;;;;;;;0.00;0.00;;;;;;;-145.06;100.00;63404.56;10214110;29;20079;-71
2021/11/24 17:57:41;;;;;;;0.00;0.00;;;;;;;-145.06;100.00;63404.56;10213362;29;20024;-70
2021/11/24 18:02:42;;;;;;;0.00;0.00;;;;;;;-145.06;100.00;63404.56;10213820;29;20027;-69
2021/11/24 18:07:42;;;;;;;0.00;0.00;;;;;;;-145.06;100.00;63404.56;10213200;29;20023;-71
2021/11/24 18:12:43;;;;;;;0.00;0.00;;;;;;;-145.06;100.00;63404.56;10227469;29;20470;-71
2021/11/24 18:17:44;;;;;;;0.00;0.00;;;;;;;-145.06;100.00;63404.56;10252966;28;20446;-72
2021/11/24 18:22:45;;;;;;;0.00;0.00;;;;;;;-145.06;100.00;63404.56;10252654;29;20086;-69
2021/11/24 18:27:46;;;;;;;0.00;0.00;;;;;;;-145.06;100.00;63404.56;10252098;28;20023;-71
2021/11/24 18:32:46;;;;;;;0.00;0.00;;;;;;;-145.06;100.00;63404.56;10252243;29;20031;-71
2021/11/24 18:37:47;;;;;;;0.00;0.00;;;;;;;-145.06;100.00;63404.56;10251458;28;20455;-71
2021/11/24 18:42:47;;;;;;;0.00;0.00;;;;;;;-145.06;100.00;63404.56;10245895;29;20029;-71
2021/11/24 18:47:49;;;;;;;0.00;0.00;;;;;;;-145.06;100.00;63404.56;10249866;28;20353;-73
2021/11/24 18:52:50;;;;;;;0.00;0.00;;;;;;;-145.06;100.00;63404.56;10251666;29;20031;-71
2021/11/24 18:57:50;;;;;;;0.00;0.00;;;;;;;-145.06;100.00;63404.56;10250714;28;20034;-71
2021/11/24 19:02:50;;;;;;;0.00;0.00;;;;;;;-145.06;100.00;63404.56;10250895;29;20389;-71
2021/11/24 19:07:51;;;;;;;0.00;0.00;;;;;;;-145.06;100.00;63404.56;10250401;28;20034;-71
2021/11/24 19:12:51;;;;;;;0.00;0.00;;;;;;;-145.06;100.00;63404.56;10244006;29;20270;-71
2021/11/24 19:17:52;;;;;;;0.00;0.00;;;;;;;-145.06;100.00;63404.56;10248670;29;20023;-71
2021/11/24 19:22:54;;;;;;;0.00;0.00;;;;;;;-145.06;100.00;63404.56;10224012;29;20024;-71
2021/11/24 19:27:55;;;;;;;0.10;0.10;;;;;;;-145.06;100.00;63404.56;10192035;29;20020;-74
2021/11/24 19:32:55;;;;;;;0.00;0.00;;;;;;;-145.06;100.00;63404.56;10171357;29;20032;-72
2021/11/24 19:37:56;;;;;;;0.00;0.00;;;;;;;-145.06;100.00;63404.56;10198527;29;20114;-72
2021/11/24 19:42:57;;;;;;;0.00;0.00;;;;;;;-145.06;100.00;63404.56;10194990;29;20016;-72
2021/11/24 19:47:59;;;;;;;0.00;0.00;;;;;;;-145.06;100.00;63404.56;10176764;29;20095;-72
2021/11/24 19:53:00;;;;;;;0.00;0.00;;;;;;;-145.06;100.00;63404.56;10183469;29;20038;-72
2021/11/24 19:58:03;;;;;;;0.00;0.00;;;;;;;-145.06;100.00;63404.56;10177174;29;20024;-74
2021/11/24 20:03:03;;;;;;;0.00;0.00;;;;;;;-145.06;100.00;63404.56;10186382;29;20030;-71
2021/11/24 20:08:04;;;;;;;0.00;0.00;;;;;;;-145.06;100.00;63404.56;10192469;29;20046;-72
2021/11/24 20:13:06;;;;;;;0.00;0.00;;;;;;;-145.06;100.00;63404.56;10201982;29;20350;-71
2021/11/24 20:18:07;;;;;;;0.00;0.00;;;;;;;-145.06;100.00;63404.56;10186539;29;20080;-72
2021/11/24 20:23:07;;;;;;;0.00;0.00;;;;;;;-145.06;100.00;63404.56;10184062;29;20024;-71
2021/11/24 20:28:14;;;;;;;0.00;0.00;;;;;;;-145.06;100.00;63404.56;10193805;29;20020;-71
2021/11/24 20:33:15;;;;;;;0.00;0.00;;;;;;;-145.06;100.00;63404.56;10196985;29;20024;-72
2021/11/24 20:38:16;;;;;;;0.00;0.00;;;;;;;-145.06;100.00;63404.56;10186475;29;20024;-71
2021/11/24 20:43:16;;;;;;;0.00;0.00;;;;;;;-145.06;100.00;63404.56;10194819;29;20027;-71
2021/11/24 20:48:16;;;;;;;0.00;0.00;;;;;;;-145.06;100.00;63404.56;10172743;29;20023;-71
2021/11/24 20:53:17;;;;;;;0.00;0.00;;;;;;;-145.06;100.00;63404.56;10197244;29;20039;-71
2021/11/24 20:58:18;;;;;;;0.00;0.00;;;;;;;-145.06;100.00;63404.56;10188145;29;20020;-70
2021/11/24 21:03:18;;;;;;;0.00;0.00;;;;;;;-145.06;100.00;63404.56;10179398;29;20032;-74
2021/11/24 21:08:19;;;;;;;0.00;0.00;;;;;;;-145.06;100.00;63404.56;10204949;29;20047;-72
2021/11/24 21:13:19;;;;;;;0.00;0.00;;;;;;;-145.06;100.00;63404.56;10201044;29;20470;-71
2021/11/24 21:18:19;;;;;;;0.00;0.00;;;;;;;-145.06;100.00;63404.56;10198041;29;20751;-71
2021/11/24 21:23:20;;;;;;;0.00;0.00;;;;;;;-145.06;100.00;63404.56;10195992;29;20731;-72
2021/11/24 21:28:20;;;;;;;0.00;0.00;;;;;;;-145.06;100.00;63404.56;10200335;29;20028;-71
2021/11/24 21:33:22;;;;;;;0.00;0.00;;;;;;;-145.06;100.00;63404.56;10177500;29;20324;-72
2021/11/24 21:38:23;;;;;;;0.00;0.00;;;;;;;-145.06;100.00;63404.56;10188433;29;20079;-73
2021/11/24 21:43:24;;;;;;;0.00;0.00;;;;;;;-145.06;100.00;63404.56;10197598;29;20035;-71
2021/11/24 21:48:24;;;;;;;0.00;0.00;;;;;;;-145.06;100.00;63404.56;10197778;29;20020;-71
2021/11/24 21:53:26;;;;;;;0.00;0.00;;;;;;;-145.06;100.00;63404.56;10194620;29;20032;-71
2021/11/24 21:58:26;;;;;;;0.38;0.10;;;;;;;-145.06;100.00;63404.56;10208364;29;20031;-71
2021/11/24 22:03:27;;;;;;;0.00;0.00;;;;;;;-145.06;100.00;63404.56;10192092;29;20032;-72
2021/11/24 22:13:46;;;;;;;0.00;0.00;;;;;;;-145.06;100.00;63404.56;10211057;29;20031;-70
2021/11/24 22:18:46;;;;;;;0.00;0.00;;;;;;;-145.06;100.00;63404.56;10183102;29;20016;-71
2021/11/24 22:23:46;;;;;;;0.00;0.00;;;;;;;-145.06;100.00;63404.56;10194173;29;20320;-71
2021/11/24 22:28:47;;;;;;;0.00;0.00;;;;;;;-145.06;100.00;63404.56;10195696;29;20495;-71
2021/11/24 22:33:47;;;;;;;0.00;0.00;;;;;;;-145.06;100.00;63404.56;10196471;29;20050;-71
2021/11/24 22:38:47;;;;;;;0.00;0.00;;;;;;;-145.06;100.00;63404.56;10185025;29;20027;-71
2021/11/24 22:43:48;;;;;;;0.00;0.00;;;;;;;-145.06;100.00;63404.56;10196951;29;20296;-71
2021/11/24 22:48:49;;;;;;;0.00;0.00;;;;;;;-145.06;100.00;63404.56;10193334;29;20031;-71
2021/11/24 22:53:49;;;;;;;0.00;0.00;;;;;;;-145.06;100.00;63404.56;10190584;29;20104;-71
2021/11/24 22:58:49;;;;;;;0.00;0.00;;;;;;;-145.06;100.00;63404.56;10192745;29;20027;-72
2021/11/24 23:03:50;;;;;;;0.00;0.00;;;;;;;-145.06;100.00;63404.56;10195242;29;20020;-72
2021/11/24 23:08:50;;;;;;;0.00;0.00;;;;;;;-145.06;100.00;63404.56;10178628;29;20099;-72
2021/11/24 23:13:50;;;;;;;0.00;0.00;;;;;;;-145.06;100.00;63404.56;10193349;29;20126;-72
2021/11/24 23:18:51;;;;;;;0.00;0.00;;;;;;;-145.06;100.00;63404.56;10196095;29;20538;-71
2021/11/24 23:23:52;;;;;;;0.00;0.00;;;;;;;-145.06;100.00;63404.56;10194218;29;20062;-72
2021/11/24 23:28:53;;;;;;;0.00;0.00;;;;;;;-145.06;100.00;63404.56;10196443;29;20575;-71
2021/11/24 23:33:53;;;;;;;0.00;0.00;;;;;;;-145.06;100.00;63404.56;10197406;29;20035;-73
2021/11/24 23:38:57;;;;;;;0.00;0.00;;;;;;;-145.06;100.00;63404.56;10188269;29;20383;-73
2021/11/24 23:43:57;;;;;;;0.00;0.00;;;;;;;-145.06;100.00;63404.56;10194662;29;20024;-71
2021/11/24 23:48:58;;;;;;;0.00;0.00;;;;;;;-145.06;100.00;63404.56;10191871;29;20024;-71
2021/11/24 23:53:58;;;;;;;0.00;0.00;;;;;;;-145.06;100.00;63404.56;10182757;29;20451;-71
2021/11/24 23:58:58;;;;;;;0.00;0.00;;;;;;;-145.06;100.00;63404.56;10189713;29;20487;-71
